Time;durP1;ratioP1;P1;durP2;ratioP2;P2;SDS_P1;SDS_P2;PMS_P1;PMS_P2;Temp;Humidity;BMP_temperature;BMP_pressure;BME280_temperature;BME280_humidity;BME280_pressure;Samples;Min_cycle;Max_cycle;Signal;HPM_P1;HPM_P2
2023/03/29 00:01:00;;;;;;;4.87;2.97;;;5.50;99.90;;;;;;5053424;28;20647;-49
2023/03/29 00:03:27;;;;;;;4.77;2.63;;;5.50;99.90;;;;;;5053342;28;20199;-49
2023/03/29 00:05:56;;;;;;;8.20;2.80;;;5.50;99.90;;;;;;5052928;28;20179;-49
2023/03/29 00:08:22;;;;;;;4.37;2.70;;;5.50;99.90;;;;;;5053059;28;20212;-50
2023/03/29 00:10:50;;;;;;;4.43;2.33;;;5.50;99.90;;;;;;5053011;28;20253;-51
2023/03/29 00:13:16;;;;;;;4.00;2.70;;;5.50;99.90;;;;;;5053370;28;20558;-51
2023/03/29 00:15:42;;;;;;;11.67;2.60;;;5.50;99.90;;;;;;5052821;28;20183;-51
2023/03/29 00:18:08;;;;;;;4.03;2.63;;;5.50;99.90;;;;;;5053028;28;20194;-51
2023/03/29 00:20:35;;;;;;;5.70;2.93;;;5.50;99.90;;;;;;5052738;28;20176;-50
2023/03/29 00:23:01;;;;;;;8.10;3.40;;;5.50;99.90;;;;;;5054263;28;20183;-44
2023/03/29 00:25:26;;;;;;;4.43;2.53;;;5.50;99.90;;;;;;5052680;28;20695;-46
2023/03/29 00:27:52;;;;;;;3.77;2.83;;;5.50;99.90;;;;;;5052890;28;20185;-46
2023/03/29 00:30:17;;;;;;;6.07;3.00;;;5.50;99.90;;;;;;5052651;28;20183;-45
2023/03/29 00:32:43;;;;;;;5.27;2.97;;;5.50;99.90;;;;;;5052743;28;20607;-47
2023/03/29 00:35:09;;;;;;;4.57;2.47;;;5.50;99.90;;;;;;5052641;28;20655;-48
2023/03/29 00:37:35;;;;;;;7.87;3.53;;;5.50;99.90;;;;;;5052866;28;20189;-46
2023/03/29 00:40:01;;;;;;;5.40;3.10;;;5.50;99.90;;;;;;5055375;28;20191;-47
2023/03/29 00:42:27;;;;;;;3.60;2.60;;;5.40;99.90;;;;;;5056346;28;20208;-46
2023/03/29 00:45:10;;;;;;;4.60;2.97;;;5.50;99.90;;;;;;5056317;28;20553;-46
2023/03/29 00:47:50;;;;;;;4.93;2.93;;;5.50;99.90;;;;;;5056406;28;20176;-45
2023/03/29 00:50:28;;;;;;;4.23;2.77;;;5.50;99.90;;;;;;5054840;28;20186;-44
2023/03/29 00:53:11;;;;;;;5.33;3.20;;;5.50;99.90;;;;;;5056224;28;20168;-45
2023/03/29 00:55:43;;;;;;;4.37;2.83;;;5.50;99.90;;;;;;5056456;28;20167;-45
2023/03/29 00:58:12;;;;;;;4.03;2.87;;;5.50;99.90;;;;;;5056144;28;20574;-46
2023/03/29 01:00:47;;;;;;;4.87;2.90;;;5.40;99.90;;;;;;5055966;28;20187;-46
2023/03/29 01:03:23;;;;;;;6.40;3.23;;;5.50;99.90;;;;;;5055937;28;20246;-46
2023/03/29 01:05:53;;;;;;;4.27;2.60;;;5.50;99.90;;;;;;5055960;28;20218;-45
2023/03/29 01:08:28;;;;;;;5.43;2.70;;;5.50;99.90;;;;;;5055613;28;20200;-45
2023/03/29 01:11:11;;;;;;;4.10;2.70;;;5.50;99.90;;;;;;5055807;28;20294;-43
2023/03/29 01:13:43;;;;;;;3.23;2.67;;;5.50;99.90;;;;;;5055832;28;20502;-44
2023/03/29 01:16:11;;;;;;;4.77;2.73;;;5.50;99.90;;;;;;5055472;28;20166;-45
2023/03/29 01:18:37;;;;;;;2.97;2.20;;;5.50;99.90;;;;;;5055467;28;20707;-46
2023/03/29 01:21:13;;;;;;;3.90;2.57;;;5.60;99.90;;;;;;5055327;28;20294;-44
2023/03/29 01:23:49;;;;;;;6.53;2.73;;;5.60;99.90;;;;;;5056227;28;20207;-44
2023/03/29 01:26:33;;;;;;;4.07;2.97;;;5.60;99.90;;;;;;5055344;28;20665;-47
2023/03/29 01:29:11;;;;;;;4.60;2.50;;;5.60;99.90;;;;;;5055270;28;20603;-46
2023/03/29 01:31:41;;;;;;;7.50;2.50;;;5.60;99.90;;;;;;5055464;28;20232;-44
2023/03/29 01:34:38;;;;;;;4.10;2.60;;;5.60;99.90;;;;;;5055485;28;20211;-45
2023/03/29 01:37:10;;;;;;;6.47;2.67;;;5.70;99.90;;;;;;5031927;28;20191;-45
2023/03/29 01:39:35;;;;;;;6.33;2.67;;;5.60;99.90;;;;;;5055151;28;20178;-44
2023/03/29 01:42:20;;;;;;;3.50;2.50;;;5.70;99.90;;;;;;5054965;28;20679;-45
2023/03/29 01:45:05;;;;;;;4.80;2.57;;;5.60;99.90;;;;;;5055278;28;20190;-44
2023/03/29 01:47:42;;;;;;;4.67;2.37;;;5.70;99.90;;;;;;5055243;28;20159;-46
2023/03/29 01:50:49;;;;;;;4.17;2.43;;;5.70;99.90;;;;;;5054279;28;20198;-46
2023/03/29 01:53:23;;;;;;;3.87;2.37;;;5.70;99.90;;;;;;5054823;28;20627;-44
2023/03/29 01:55:55;;;;;;;4.00;2.27;;;5.70;99.90;;;;;;5055032;28;20194;-44
2023/03/29 01:58:28;;;;;;;5.83;2.33;;;5.70;99.90;;;;;;5054737;28;20187;-43
2023/03/29 02:00:54;;;;;;;5.30;2.53;;;5.70;99.90;;;;;;5054551;28;20207;-44
2023/03/29 02:03:25;;;;;;;3.60;2.40;;;5.70;99.90;;;;;;5054537;28;20250;-45
2023/03/29 02:05:53;;;;;;;6.73;2.37;;;5.70;99.90;;;;;;5054917;28;20176;-44
2023/03/29 02:08:20;;;;;;;3.63;2.23;;;5.70;99.90;;;;;;5055369;28;20672;-50
2023/03/29 02:10:46;;;;;;;3.20;2.30;;;5.80;99.90;;;;;;5054719;28;20195;-51
2023/03/29 02:13:11;;;;;;;6.17;3.17;;;5.80;99.90;;;;;;5054702;28;20189;-51
2023/03/29 02:15:37;;;;;;;2.90;2.53;;;5.80;99.90;;;;;;5055088;28;20210;-50
2023/03/29 02:18:05;;;;;;;3.00;2.27;;;5.80;99.90;;;;;;5054651;28;20269;-51
2023/03/29 02:20:41;;;;;;;2.77;2.10;;;5.80;99.90;;;;;;5054715;28;20190;-51
2023/03/29 02:23:13;;;;;;;3.10;2.40;;;5.80;99.90;;;;;;5055887;28;20512;-48
2023/03/29 02:25:39;;;;;;;3.20;2.07;;;5.90;99.90;;;;;;5054548;28;20161;-45
2023/03/29 02:28:06;;;;;;;4.30;2.37;;;5.90;99.90;;;;;;5054385;28;20182;-48
2023/03/29 02:31:01;;;;;;;4.60;2.30;;;5.90;99.90;;;;;;5054030;28;20546;-45
2023/03/29 02:33:45;;;;;;;3.50;2.30;;;5.90;99.90;;;;;;5054350;28;20528;-47
2023/03/29 02:36:14;;;;;;;3.83;2.43;;;5.90;99.90;;;;;;5054298;28;20171;-48
2023/03/29 02:38:40;;;;;;;6.90;2.53;;;5.90;99.90;;;;;;5054098;28;20180;-47
2023/03/29 02:41:07;;;;;;;5.70;2.40;;;5.90;99.90;;;;;;5053812;28;20209;-45
2023/03/29 02:43:34;;;;;;;5.33;2.50;;;5.90;99.90;;;;;;5054109;28;20532;-46
2023/03/29 02:46:01;;;;;;;2.63;2.17;;;6.00;99.90;;;;;;5054117;28;20183;-47
2023/03/29 02:48:28;;;;;;;3.90;2.27;;;6.00;99.90;;;;;;5053916;28;20571;-48
2023/03/29 02:50:59;;;;;;;3.50;2.43;;;6.00;99.90;;;;;;5053967;28;20677;-48
2023/03/29 02:53:48;;;;;;;4.50;2.70;;;6.00;99.90;;;;;;5054031;28;20172;-46
2023/03/29 02:56:14;;;;;;;3.80;2.27;;;6.00;99.90;;;;;;5053868;28;20626;-48
2023/03/29 02:58:39;;;;;;;4.53;2.43;;;6.00;99.90;;;;;;5053961;28;20219;-46
2023/03/29 03:01:06;;;;;;;2.80;2.10;;;6.00;99.90;;;;;;5053396;28;20211;-47
2023/03/29 03:03:32;;;;;;;5.27;2.50;;;6.50;99.90;;;;;;5053528;28;20199;-48
2023/03/29 03:06:00;;;;;;;4.67;2.40;;;6.10;99.90;;;;;;5053539;28;20181;-48
2023/03/29 03:08:25;;;;;;;6.70;2.17;;;6.10;99.90;;;;;;5053749;28;20211;-45
2023/03/29 03:10:51;;;;;;;3.00;2.60;;;6.10;99.90;;;;;;5053350;28;20210;-44
2023/03/29 03:13:17;;;;;;;3.47;2.27;;;6.20;99.90;;;;;;5053498;28;20255;-46
2023/03/29 03:15:47;;;;;;;3.03;2.00;;;6.20;99.90;;;;;;5053406;28;20186;-45
2023/03/29 03:18:13;;;;;;;2.07;1.83;;;6.20;99.90;;;;;;5053668;28;20247;-47
2023/03/29 03:20:39;;;;;;;2.77;1.93;;;6.20;99.90;;;;;;5053525;28;20187;-48
2023/03/29 03:23:07;;;;;;;2.53;2.10;;;6.10;99.90;;;;;;5053643;28;20622;-46
2023/03/29 03:25:34;;;;;;;4.00;2.10;;;6.20;99.90;;;;;;5053582;28;20191;-48
2023/03/29 03:28:00;;;;;;;5.60;2.00;;;6.20;99.90;;;;;;5053265;28;20198;-46
2023/03/29 03:30:26;;;;;;;6.33;2.30;;;6.20;99.90;;;;;;5053213;28;20184;-46
2023/03/29 03:32:53;;;;;;;5.47;2.60;;;6.30;99.90;;;;;;5053188;28;20509;-46
2023/03/29 03:35:19;;;;;;;3.57;2.10;;;6.30;99.90;;;;;;5053152;28;20176;-47
2023/03/29 03:37:45;;;;;;;4.03;1.80;;;6.30;99.90;;;;;;5053168;28;20192;-46
2023/03/29 03:40:12;;;;;;;3.37;2.37;;;6.30;99.90;;;;;;5053424;28;20542;-47
2023/03/29 03:42:38;;;;;;;4.60;2.20;;;6.40;99.90;;;;;;5053092;28;20209;-45
2023/03/29 03:45:05;;;;;;;3.50;2.00;;;6.40;99.90;;;;;;5053109;28;20176;-48
2023/03/29 03:47:30;;;;;;;4.80;2.60;;;6.40;99.90;;;;;;5053331;28;20530;-48
2023/03/29 03:49:56;;;;;;;6.80;2.17;;;6.40;99.90;;;;;;5052960;28;20245;-48
2023/03/29 03:52:22;;;;;;;4.93;2.10;;;6.40;99.90;;;;;;5053193;28;20196;-47
2023/03/29 03:54:49;;;;;;;7.00;2.13;;;6.50;99.90;;;;;;5053243;28;20183;-45
2023/03/29 03:57:14;;;;;;;4.87;2.20;;;6.50;99.90;;;;;;5053315;28;20207;-46
2023/03/29 03:59:40;;;;;;;3.37;2.17;;;6.50;99.90;;;;;;5052941;28;20226;-46
2023/03/29 04:02:06;;;;;;;3.53;1.90;;;6.50;99.90;;;;;;5052981;28;20211;-45
2023/03/29 04:04:32;;;;;;;4.00;2.30;;;6.50;99.90;;;;;;5053019;28;20281;-46
2023/03/29 04:09:27;;;;;;;6.43;2.50;;;6.50;99.90;;;;;;5051487;28;20220;-47
2023/03/29 04:11:52;;;;;;;6.50;2.30;;;6.50;99.90;;;;;;5053080;28;20195;-48
2023/03/29 04:14:19;;;;;;;6.27;2.33;;;6.50;99.90;;;;;;5054324;28;20178;-48
2023/03/29 04:16:44;;;;;;;4.57;2.07;;;6.50;99.90;;;;;;5056971;28;20187;-48
2023/03/29 04:19:10;;;;;;;4.30;2.50;;;6.50;99.90;;;;;;5056602;28;20669;-48
2023/03/29 04:21:36;;;;;;;3.43;2.60;;;6.50;99.90;;;;;;5056813;28;20636;-47
2023/03/29 04:24:01;;;;;;;3.93;2.40;;;6.50;99.90;;;;;;5056927;28;20180;-47
2023/03/29 04:26:27;;;;;;;3.70;2.20;;;6.50;99.90;;;;;;5056520;28;20186;-48
2023/03/29 04:28:52;;;;;;;6.87;2.93;;;6.50;99.90;;;;;;5056467;28;20252;-48
2023/03/29 04:31:18;;;;;;;3.63;2.23;;;6.50;99.90;;;;;;5056608;28;20198;-47
2023/03/29 04:33:46;;;;;;;2.93;2.10;;;6.50;99.90;;;;;;5056710;28;20199;-47
2023/03/29 04:36:12;;;;;;;3.17;2.43;;;6.50;99.90;;;;;;5056603;28;20182;-48
2023/03/29 04:38:40;;;;;;;3.33;2.30;;;6.50;99.90;;;;;;5056544;28;20183;-47
2023/03/29 04:41:08;;;;;;;4.10;2.40;;;6.50;99.90;;;;;;5056476;28;20203;-47
2023/03/29 04:43:34;;;;;;;4.43;2.37;;;6.50;99.90;;;;;;5056329;28;20309;-47
2023/03/29 04:46:00;;;;;;;6.27;2.60;;;6.50;99.90;;;;;;5056240;28;20225;-47
2023/03/29 04:48:25;;;;;;;2.97;2.30;;;6.50;99.90;;;;;;5056193;28;20250;-48
2023/03/29 04:50:53;;;;;;;5.23;2.10;;;6.50;99.90;;;;;;5056248;28;20218;-48
2023/03/29 04:53:19;;;;;;;4.23;2.23;;;6.50;99.90;;;;;;5054864;28;20184;-47
2023/03/29 04:55:46;;;;;;;3.70;2.17;;;6.60;99.90;;;;;;5056307;28;20601;-47
2023/03/29 04:58:11;;;;;;;9.07;2.20;;;6.60;99.90;;;;;;5056315;28;20269;-49
2023/03/29 05:00:37;;;;;;;5.77;2.40;;;7.30;99.90;;;;;;5056086;28;20176;-47
2023/03/29 05:03:03;;;;;;;5.20;2.30;;;6.60;99.90;;;;;;5054647;28;20607;-47
2023/03/29 05:05:30;;;;;;;5.53;2.60;;;6.60;99.90;;;;;;5056056;28;20213;-47
2023/03/29 05:07:55;;;;;;;5.77;2.60;;;6.60;99.90;;;;;;5055907;28;20199;-47
2023/03/29 05:10:22;;;;;;;2.63;2.03;;;6.60;99.90;;;;;;5054326;28;20203;-48
2023/03/29 05:12:52;;;;;;;3.87;2.77;;;6.60;99.90;;;;;;5055892;28;20705;-47
2023/03/29 05:15:19;;;;;;;9.47;2.47;;;6.60;99.90;;;;;;5055833;28;20610;-47
2023/03/29 05:17:45;;;;;;;3.90;2.50;;;6.60;99.90;;;;;;5055876;28;20185;-48
2023/03/29 05:20:11;;;;;;;3.40;2.37;;;6.60;99.90;;;;;;5056309;28;20263;-47
2023/03/29 05:22:38;;;;;;;4.07;2.43;;;6.70;99.90;;;;;;5055362;28;20194;-47
2023/03/29 05:25:04;;;;;;;7.40;2.60;;;6.70;99.90;;;;;;5055476;28;20534;-48
2023/03/29 05:27:29;;;;;;;4.50;2.30;;;6.70;99.90;;;;;;5055381;28;20244;-48
2023/03/29 05:29:55;;;;;;;2.87;2.30;;;6.70;99.90;;;;;;5055201;28;20730;-48
2023/03/29 05:32:21;;;;;;;5.03;2.53;;;6.70;99.90;;;;;;5055142;28;20559;-46
2023/03/29 05:34:46;;;;;;;5.80;2.60;;;6.70;99.90;;;;;;5055294;28;20647;-47
2023/03/29 05:37:12;;;;;;;3.57;2.60;;;6.70;99.90;;;;;;5055401;28;20648;-47
2023/03/29 05:39:38;;;;;;;4.77;2.47;;;6.70;99.90;;;;;;5055103;28;20527;-48
2023/03/29 05:42:03;;;;;;;5.93;2.70;;;6.70;99.90;;;;;;5054986;28;20540;-47
2023/03/29 05:44:29;;;;;;;6.60;2.90;;;6.80;99.90;;;;;;5057830;28;20216;-49
2023/03/29 05:46:56;;;;;;;6.13;2.37;;;6.80;99.90;;;;;;5056668;28;20184;-49
2023/03/29 05:49:21;;;;;;;5.20;2.63;;;6.80;99.90;;;;;;5055237;28;20634;-49
2023/03/29 05:51:47;;;;;;;3.73;2.77;;;7.80;99.90;;;;;;5056192;28;20219;-49
2023/03/29 05:54:13;;;;;;;5.87;2.50;;;6.80;99.90;;;;;;5056412;28;20169;-49
2023/03/29 05:56:39;;;;;;;7.13;2.97;;;6.80;99.90;;;;;;5056303;28;20175;-49
2023/03/29 05:59:07;;;;;;;6.50;3.00;;;6.90;99.90;;;;;;5056232;28;20176;-50
2023/03/29 06:01:33;;;;;;;5.77;3.13;;;6.90;99.90;;;;;;5056334;28;20298;-50
2023/03/29 06:03:59;;;;;;;5.60;2.77;;;6.90;99.90;;;;;;5056378;28;20180;-50
2023/03/29 06:06:25;;;;;;;10.47;2.93;;;6.90;99.90;;;;;;5056705;28;20242;-49
2023/03/29 06:08:50;;;;;;;6.07;3.03;;;7.00;99.90;;;;;;5054796;28;20698;-49
2023/03/29 06:11:16;;;;;;;6.10;2.90;;;7.00;99.90;;;;;;5055972;28;20206;-49
2023/03/29 06:13:42;;;;;;;4.83;2.47;;;7.00;99.90;;;;;;5056775;28;20523;-48
2023/03/29 06:16:09;;;;;;;4.63;2.77;;;7.00;99.90;;;;;;5056052;28;20651;-49
2023/03/29 06:18:36;;;;;;;6.00;2.57;;;7.00;99.90;;;;;;5056248;28;20249;-49
2023/03/29 06:21:03;;;;;;;3.97;2.50;;;7.10;99.90;;;;;;5056384;28;20211;-49
2023/03/29 06:23:29;;;;;;;5.37;2.47;;;7.10;99.90;;;;;;5056408;28;20180;-49
2023/03/29 06:25:55;;;;;;;4.53;2.90;;;7.20;99.90;;;;;;5056412;28;20267;-50
2023/03/29 06:28:21;;;;;;;4.17;2.50;;;7.20;99.90;;;;;;5056146;28;20234;-49
2023/03/29 06:30:48;;;;;;;3.70;2.60;;;7.30;99.90;;;;;;5056355;28;20197;-50
2023/03/29 06:33:14;;;;;;;6.47;2.53;;;7.30;99.90;;;;;;5056491;28;20656;-49
2023/03/29 06:35:44;;;;;;;3.93;2.37;;;7.40;99.90;;;;;;5056151;28;20645;-50
2023/03/29 06:38:10;;;;;;;4.47;2.40;;;7.40;99.90;;;;;;5055890;28;20203;-50
2023/03/29 06:40:38;;;;;;;5.27;2.20;;;7.40;99.90;;;;;;5056565;28;20180;-49
2023/03/29 06:43:04;;;;;;;4.87;2.40;;;7.50;99.90;;;;;;5056022;28;20168;-50
2023/03/29 06:45:35;;;;;;;5.93;2.50;;;7.60;99.90;;;;;;5055478;28;20181;-49
2023/03/29 06:48:02;;;;;;;4.40;2.40;;;7.60;99.90;;;;;;5054942;28;20224;-50
2023/03/29 06:50:28;;;;;;;6.40;2.70;;;7.70;99.90;;;;;;5054907;28;20263;-48
2023/03/29 06:52:53;;;;;;;6.87;2.80;;;7.70;99.90;;;;;;5054581;28;20179;-49
2023/03/29 06:55:21;;;;;;;4.47;2.40;;;7.70;99.90;;;;;;5054479;28;20210;-49
2023/03/29 06:57:47;;;;;;;6.30;2.60;;;7.70;99.90;;;;;;5054873;28;20678;-48
2023/03/29 07:00:17;;;;;;;6.10;2.87;;;7.70;99.90;;;;;;5054696;28;20648;-49
2023/03/29 07:02:43;;;;;;;5.30;2.63;;;7.80;99.90;;;;;;5055193;28;20203;-51
2023/03/29 07:05:12;;;;;;;5.20;2.80;;;7.80;99.90;;;;;;5054805;28;20515;-49
2023/03/29 07:10:21;;;;;;;6.47;2.93;;;8.00;99.90;;;;;;5055015;28;20334;-48
2023/03/29 07:12:50;;;;;;;9.23;3.33;;;8.10;99.90;;;;;;5055105;28;20270;-49
2023/03/29 07:15:16;;;;;;;4.80;3.13;;;8.10;99.90;;;;;;5053687;28;20183;-50
2023/03/29 07:17:41;;;;;;;5.30;2.77;;;8.20;99.90;;;;;;5053677;28;20180;-50
2023/03/29 07:20:12;;;;;;;3.53;2.57;;;8.30;99.90;;;;;;5054954;28;20207;-49
2023/03/29 07:22:38;;;;;;;7.37;3.07;;;8.40;99.90;;;;;;5055550;28;20199;-48
2023/03/29 07:25:04;;;;;;;4.70;3.00;;;8.50;99.90;;;;;;5055024;28;20180;-49
2023/03/29 07:27:30;;;;;;;4.47;2.57;;;8.50;99.90;;;;;;5054191;28;20259;-49
2023/03/29 07:29:56;;;;;;;5.27;2.97;;;8.70;99.90;;;;;;5054770;28;20294;-51
2023/03/29 07:32:22;;;;;;;6.00;3.43;;;8.70;99.90;;;;;;5054360;28;20200;-50
2023/03/29 07:34:48;;;;;;;4.70;3.57;;;8.80;99.90;;;;;;5054625;28;20177;-50
2023/03/29 07:37:14;;;;;;;7.70;3.30;;;8.90;99.90;;;;;;5054864;28;20173;-49
2023/03/29 07:39:39;;;;;;;5.37;2.97;;;9.00;99.90;;;;;;5054515;28;20219;-50
2023/03/29 07:42:05;;;;;;;5.73;3.47;;;9.10;99.90;;;;;;5054084;28;20196;-50
2023/03/29 07:44:32;;;;;;;10.60;3.33;;;9.20;99.90;;;;;;5054519;28;20180;-50
2023/03/29 07:47:00;;;;;;;5.50;2.90;;;9.30;99.90;;;;;;5054461;28;20203;-50
2023/03/29 07:49:26;;;;;;;5.73;3.23;;;9.40;99.90;;;;;;5058420;28;20239;-50
2023/03/29 07:51:53;;;;;;;5.17;3.00;;;9.50;99.90;;;;;;5058478;28;20227;-50
2023/03/29 07:54:19;;;;;;;5.83;2.97;;;9.60;99.90;;;;;;5059157;28;20214;-49
2023/03/29 07:56:46;;;;;;;5.80;3.10;;;9.60;99.90;;;;;;5059169;28;20180;-50
2023/03/29 07:59:12;;;;;;;5.83;3.20;;;9.70;99.90;;;;;;5059773;28;20181;-50
2023/03/29 08:01:39;;;;;;;7.73;2.87;;;9.80;99.90;;;;;;5059194;28;20258;-50
2023/03/29 08:04:05;;;;;;;5.17;2.70;;;10.10;99.90;;;;;;5059828;28;20185;-49
2023/03/29 08:06:31;;;;;;;5.40;3.00;;;9.90;99.90;;;;;;5060784;28;20196;-50
2023/03/29 08:08:57;;;;;;;5.67;3.10;;;10.00;99.90;;;;;;5061661;28;20587;-49
2023/03/29 08:11:23;;;;;;;7.63;2.57;;;10.10;99.90;;;;;;5058340;28;20613;-49
2023/03/29 08:13:50;;;;;;;9.37;3.50;;;10.20;99.90;;;;;;5058640;28;20179;-49
2023/03/29 08:16:16;;;;;;;5.93;2.87;;;10.20;99.90;;;;;;5058437;28;20632;-49
2023/03/29 08:18:41;;;;;;;7.03;2.77;;;10.30;99.90;;;;;;5058681;28;20275;-50
2023/03/29 08:21:07;;;;;;;7.00;2.77;;;10.30;99.90;;;;;;5058473;28;20265;-49
2023/03/29 08:23:33;;;;;;;8.17;3.17;;;10.40;99.90;;;;;;5058520;28;20534;-49
2023/03/29 08:25:58;;;;;;;6.67;2.90;;;10.50;99.90;;;;;;5058801;28;20185;-50
2023/03/29 08:28:24;;;;;;;6.57;2.73;;;10.50;99.90;;;;;;5058455;28;20282;-48
2023/03/29 08:30:50;;;;;;;6.03;3.00;;;10.60;99.90;;;;;;5059043;28;20216;-48
2023/03/29 08:33:16;;;;;;;5.23;2.53;;;10.70;99.90;;;;;;5058324;28;20187;-48
2023/03/29 08:35:41;;;;;;;4.93;2.50;;;10.70;99.90;;;;;;5058748;28;20188;-50
2023/03/29 08:38:07;;;;;;;6.57;2.37;;;10.70;99.90;;;;;;5059031;28;20181;-50
2023/03/29 08:40:34;;;;;;;5.07;2.30;;;10.80;99.90;;;;;;5058095;28;20236;-48
2023/03/29 08:43:05;;;;;;;7.20;3.10;;;10.90;99.90;;;;;;5058570;28;20182;-50
2023/03/29 08:45:38;;;;;;;7.17;2.50;;;10.90;99.90;;;;;;5058674;28;20176;-50
2023/03/29 08:48:18;;;;;;;3.33;2.13;;;10.90;99.90;;;;;;5058657;28;20182;-49
2023/03/29 08:50:51;;;;;;;8.20;2.10;;;11.00;99.90;;;;;;5059171;28;20208;-48
2023/03/29 08:53:21;;;;;;;3.63;2.13;;;11.10;99.90;;;;;;5058895;28;20195;-49
2023/03/29 08:55:50;;;;;;;5.77;2.27;;;11.20;99.90;;;;;;5058918;28;20172;-48
2023/03/29 08:58:24;;;;;;;4.93;2.50;;;11.20;99.90;;;;;;5058964;28;20302;-49
2023/03/29 09:00:56;;;;;;;7.33;2.53;;;11.30;99.90;;;;;;5058024;28;20196;-48
2023/03/29 09:03:33;;;;;;;3.23;2.27;;;11.40;99.90;;;;;;5058128;28;20711;-48
2023/03/29 09:06:04;;;;;;;5.73;2.47;;;11.40;99.90;;;;;;5058741;28;20157;-51
2023/03/29 09:08:30;;;;;;;7.13;2.70;;;11.50;99.90;;;;;;5058819;28;20678;-50
2023/03/29 09:11:15;;;;;;;7.17;2.47;;;11.60;99.90;;;;;;5058601;28;20204;-50
2023/03/29 09:14:01;;;;;;;2.13;1.60;;;11.70;99.90;;;;;;5058855;28;20171;-49
2023/03/29 09:16:54;;;;;;;3.80;2.07;;;11.70;99.90;;;;;;5059055;28;20551;-50
2023/03/29 09:20:10;;;;;;;7.83;2.37;;;11.80;99.90;;;;;;5058521;28;20168;-50
2023/03/29 09:22:51;;;;;;;3.93;2.17;;;11.90;99.90;;;;;;5032846;28;20216;-49
2023/03/29 09:25:24;;;;;;;4.73;2.37;;;11.90;99.90;;;;;;5058761;28;20546;-49
2023/03/29 09:28:10;;;;;;;5.43;2.23;;;12.00;99.90;;;;;;5058067;28;20207;-49
2023/03/29 09:30:41;;;;;;;2.83;2.07;;;12.00;99.90;;;;;;5057861;28;20171;-49
2023/03/29 09:33:11;;;;;;;6.07;2.47;;;12.10;99.90;;;;;;5057925;28;20183;-48
2023/03/29 09:35:41;;;;;;;5.60;2.80;;;12.10;99.90;;;;;;5057718;28;20179;-50
2023/03/29 09:38:11;;;;;;;5.50;2.40;;;12.10;99.90;;;;;;5058520;28;20168;-49
2023/03/29 09:40:42;;;;;;;4.67;2.20;;;12.10;99.90;;;;;;5057337;28;20641;-50
2023/03/29 09:43:13;;;;;;;3.73;2.40;;;12.20;99.90;;;;;;5057261;28;20516;-50
2023/03/29 09:45:39;;;;;;;5.90;2.33;;;12.20;99.90;;;;;;5057390;28;20624;-50
2023/03/29 09:48:11;;;;;;;3.97;2.00;;;12.20;99.90;;;;;;5057158;28;20509;-48
2023/03/29 09:50:41;;;;;;;5.90;2.47;;;12.30;99.90;;;;;;5056431;28;20200;-50
2023/03/29 09:53:08;;;;;;;3.53;1.90;;;12.30;99.90;;;;;;5056429;28;20168;-50
2023/03/29 09:55:36;;;;;;;6.20;2.27;;;12.30;99.90;;;;;;5055975;28;20184;-50
2023/03/29 09:58:18;;;;;;;4.07;2.47;;;12.40;99.90;;;;;;5056053;28;20180;-48
2023/03/29 10:00:45;;;;;;;7.67;2.30;;;12.30;99.90;;;;;;5055689;28;20218;-49
2023/03/29 10:03:22;;;;;;;3.93;2.13;;;12.40;99.90;;;;;;5055545;28;20187;-50
2023/03/29 10:05:52;;;;;;;5.40;2.20;;;12.40;99.90;;;;;;5055312;28;20179;-49
2023/03/29 10:08:37;;;;;;;2.80;2.00;;;12.50;99.90;;;;;;5054960;28;20192;-49
2023/03/29 10:11:08;;;;;;;4.27;2.53;;;12.60;99.90;;;;;;5098245;22;20230;-50
2023/03/29 10:13:42;;;;;;;4.43;2.63;;;12.70;99.90;;;;;;5095211;28;20167;-51
2023/03/29 10:16:29;;;;;;;8.33;2.57;;;12.80;99.90;;;;;;5095423;28;20524;-51
2023/03/29 10:18:55;;;;;;;6.70;2.23;;;13.00;99.90;;;;;;5095081;28;20207;-51
2023/03/29 10:21:22;;;;;;;4.13;2.23;;;13.10;99.90;;;;;;5094542;28;20202;-52
2023/03/29 10:23:55;;;;;;;6.53;2.60;;;13.10;99.90;;;;;;5094771;28;20186;-51
2023/03/29 10:26:32;;;;;;;2.87;2.03;;;13.10;99.90;;;;;;5094893;28;20163;-51
2023/03/29 10:29:00;;;;;;;4.93;2.50;;;13.10;99.90;;;;;;5094659;28;20235;-53
2023/03/29 10:31:31;;;;;;;6.43;2.43;;;13.10;99.90;;;;;;5094406;28;20202;-53
2023/03/29 10:34:01;;;;;;;5.27;2.40;;;13.10;99.90;;;;;;5094674;28;20293;-52
2023/03/29 10:36:27;;;;;;;5.20;2.30;;;13.20;99.90;;;;;;5095111;28;20536;-52
2023/03/29 10:38:57;;;;;;;2.90;2.10;;;13.20;99.90;;;;;;5094273;28;20704;-52
2023/03/29 10:41:25;;;;;;;5.37;2.47;;;13.30;99.90;;;;;;5094389;28;20206;-52
2023/03/29 10:43:52;;;;;;;3.53;2.13;;;13.30;99.90;;;;;;5094245;28;20206;-54
2023/03/29 10:46:41;;;;;;;11.37;2.37;;;13.40;99.90;;;;;;5094413;28;20228;-54
2023/03/29 10:49:21;;;;;;;5.83;2.50;;;13.50;99.90;;;;;;5094109;28;20202;-52
2023/03/29 10:51:49;;;;;;;3.80;2.37;;;13.60;99.90;;;;;;5094042;28;20198;-53
2023/03/29 10:54:20;;;;;;;5.80;2.50;;;13.80;99.90;;;;;;5093947;28;20174;-54
2023/03/29 10:56:51;;;;;;;6.07;2.37;;;13.90;99.90;;;;;;5094362;28;20532;-50
2023/03/29 10:59:23;;;;;;;5.03;2.20;;;14.00;99.90;;;;;;5094235;28;20212;-53
2023/03/29 11:02:13;;;;;;;3.07;1.77;;;14.20;99.90;;;;;;5094138;28;20205;-53
2023/03/29 11:04:55;;;;;;;5.30;2.20;;;14.30;99.90;;;;;;5094534;28;20163;-52
2023/03/29 11:07:25;;;;;;;4.90;2.37;;;14.50;99.90;;;;;;5093965;28;20177;-53
2023/03/29 11:10:28;;;;;;;5.57;2.43;;;14.70;99.90;;;;;;5093946;28;20610;-53
2023/03/29 11:13:01;;;;;;;4.47;2.27;;;14.80;99.90;;;;;;5093662;28;20178;-53
2023/03/29 11:15:37;;;;;;;4.40;2.10;;;14.80;99.90;;;;;;5094591;28;20163;-54
2023/03/29 11:18:24;;;;;;;5.93;2.17;;;14.90;99.90;;;;;;5093999;28;20158;-54
2023/03/29 11:21:15;;;;;;;7.33;2.17;;;14.90;99.90;;;;;;5094316;28;20183;-54
2023/03/29 11:23:52;;;;;;;4.37;2.27;;;15.00;99.90;;;;;;5093747;28;20179;-53
2023/03/29 11:26:23;;;;;;;3.77;1.83;;;15.00;99.90;;;;;;5093635;28;20203;-51
2023/03/29 11:28:59;;;;;;;4.40;2.20;;;15.10;99.90;;;;;;5093566;28;20282;-53
2023/03/29 11:31:33;;;;;;;4.47;2.00;;;15.10;99.90;;;;;;5093700;28;20202;-52
2023/03/29 11:34:23;;;;;;;3.10;2.10;;;15.10;99.90;;;;;;5093828;28;20527;-52
2023/03/29 11:37:14;;;;;;;5.63;2.17;;;15.10;99.90;;;;;;5093721;28;20182;-52
2023/03/29 11:40:26;;;;;;;6.97;2.30;;;15.20;99.90;;;;;;5093814;28;20167;-52
2023/03/29 11:42:56;;;;;;;4.03;2.03;;;15.30;99.90;;;;;;5051340;28;20184;-51
2023/03/29 11:45:38;;;;;;;4.80;2.00;;;15.40;99.90;;;;;;5089835;28;20550;-51
2023/03/29 11:48:09;;;;;;;3.80;2.07;;;15.40;99.90;;;;;;5093740;28;20171;-53
2023/03/29 11:50:50;;;;;;;4.23;2.00;;;15.50;99.90;;;;;;5093501;28;20201;-50
2023/03/29 11:53:31;;;;;;;3.10;1.83;;;15.50;99.90;;;;;;5093665;28;20155;-52
2023/03/29 11:56:04;;;;;;;4.70;2.10;;;15.60;99.90;;;;;;5093731;28;20193;-51
2023/03/29 11:58:36;;;;;;;3.53;2.13;;;15.70;99.90;;;;;;5093745;28;20166;-51
2023/03/29 12:01:11;;;;;;;2.53;1.80;;;15.80;99.90;;;;;;5093642;28;20210;-51
2023/03/29 12:03:46;;;;;;;4.53;2.00;;;16.00;99.90;;;;;;5093871;28;20509;-52
2023/03/29 12:06:26;;;;;;;5.20;2.20;;;16.20;99.90;;;;;;5093514;28;20174;-52
2023/03/29 12:09:04;;;;;;;4.50;1.90;;;16.30;99.90;;;;;;5093716;28;20642;-52
2023/03/29 12:11:37;;;;;;;3.60;2.20;;;16.30;99.90;;;;;;5093103;28;20211;-52
2023/03/29 12:14:12;;;;;;;2.83;1.77;;;16.40;99.90;;;;;;5093235;28;20171;-51
2023/03/29 12:16:55;;;;;;;4.43;2.00;;;16.50;99.90;;;;;;5093349;28;20184;-52
2023/03/29 12:19:28;;;;;;;2.93;1.73;;;16.60;99.90;;;;;;5093407;28;20159;-52
2023/03/29 12:21:56;;;;;;;2.23;1.63;;;16.80;99.90;;;;;;5093800;28;20222;-50
2023/03/29 12:24:25;;;;;;;3.07;1.70;;;16.90;99.90;;;;;;5093934;28;20269;-52
2023/03/29 12:26:51;;;;;;;7.93;2.57;;;17.10;99.90;;;;;;5092999;28;20179;-52
2023/03/29 12:29:43;;;;;;;5.53;1.90;;;17.20;99.90;;;;;;5093173;28;20205;-52
2023/03/29 12:32:28;;;;;;;3.83;1.77;;;17.20;99.90;;;;;;5093181;28;20229;-51
2023/03/29 12:35:13;;;;;;;2.77;1.57;;;17.20;99.90;;;;;;5094073;28;20245;-51
2023/03/29 12:38:08;;;;;;;4.37;2.00;;;17.20;99.90;;;;;;5096977;28;20164;-51
2023/03/29 12:40:45;;;;;;;5.70;1.60;;;17.30;99.90;;;;;;5087467;28;20301;-53
2023/03/29 12:43:19;;;;;;;2.67;1.50;;;17.30;99.90;;;;;;5096522;28;20186;-53
2023/03/29 12:45:49;;;;;;;2.17;1.20;;;17.30;99.90;;;;;;5096776;28;20166;-51
2023/03/29 12:48:18;;;;;;;4.13;1.50;;;17.40;99.90;;;;;;5096710;28;20577;-52
2023/03/29 12:50:53;;;;;;;2.47;1.87;;;17.40;99.90;;;;;;5096306;28;20614;-52
2023/03/29 12:53:35;;;;;;;3.57;1.50;;;17.40;99.90;;;;;;5096587;28;20181;-54
2023/03/29 12:56:07;;;;;;;3.40;1.30;;;17.40;99.90;;;;;;5096615;28;20156;-53
2023/03/29 12:58:39;;;;;;;1.43;1.17;;;17.30;99.90;;;;;;5096457;28;20571;-52
2023/03/29 13:01:26;;;;;;;1.97;1.00;;;17.30;99.90;;;;;;5096333;28;20195;-52
2023/03/29 13:04:02;;;;;;;1.83;1.00;;;17.40;99.90;;;;;;5095740;28;20183;-54
2023/03/29 13:06:46;;;;;;;2.50;1.23;;;17.30;99.90;;;;;;5095982;28;20646;-52
2023/03/29 13:09:34;;;;;;;1.20;1.03;;;17.30;99.90;;;;;;5095880;28;20203;-52
2023/03/29 13:12:14;;;;;;;2.03;1.00;;;17.30;99.90;;;;;;5096237;28;20195;-53
2023/03/29 13:14:48;;;;;;;2.33;1.30;;;17.30;99.90;;;;;;5095915;28;20179;-52
2023/03/29 13:17:37;;;;;;;4.43;1.40;;;17.20;99.90;;;;;;5096173;28;20198;-53